Longview, WA

4:32 PM PDT on April 27, 2015 (GMT -0700)
Chehalis-Centralia | | Change Station
CLOSE
Current Station
Airport
Location: Chehalis,
Elevation: 177 ft
Nearby Weather Stations

Elev 177 ft 46.68 °N, 122.98 °W | Updated 17 minutes ago

Clear
Clear
79 °F
Feels Like 79 °F
N
5
Wind Variable Wind from North
Gusts 12 mph

Today
High -- | Low -- °F
--% Chance of Precip.
Yesterday
High -- | Low -- °F
Precip. -- in
6:05 AM 8:15 PM
Waxing Gibbous, 68% visible
Pressure 30.01 in
Visibility 10.0 miles
Clouds Clear
Dew Point 61 °F
Humidity 54%
Rainfall 0.00 in
Snow Depth Not available.
UV 5 out of 12
Pollen 9.80 out of 12
Air Quality Not available.
Flu Activity Regional
METAR KCLS 272315Z AUTO 36004G10KT 10SM CLR 26/16 A3001 RMK AO2

More Conditions Fewer Conditions

Pressure 30.01 in
Visibility 10.0 miles
Clouds Clear
Dew Point 61 °F
Humidity 54%
Rainfall 0.00 in
Snow Depth Not available.
UV 5 out of 12
Pollen 9.80 out of 12
Air Quality Not available.
Flu Activity Regional
METAR KCLS 272315Z AUTO 36004G10KT 10SM CLR 26/16 A3001 RMK AO2

More Conditions Fewer Conditions

10-Day Weather Forecast

Almanac

Astronomy

Apr. 27, 2015 Rise Set
Actual Time
Civil Twilight
Nautical Twilight
Astronomical Twilight
Moon
Length of Visible Light
Length of Day
Tomorrow will be .
, % of the Moon is Illuminated

Today's Extremes

State Highs State Lows

Community

WunderPhotos

Upload Photos

1,817,473 photos uploaded!

WunderBlogs® & News

Nearby

Air Quality

  Air Quality AQ Index Pollutant
Not available.

Snow Depth

Station Depth Elevation

Earthquake Activity

City Distance Mag. Time & Date
Minimum magnitude displayed is 2.5.

Coastal Water Temperatures

Place Temperature

Stations

Nearby Weather Stations

Station Location Temp. Windchill Dew Point Humidity Wind Precip. Elev Updated Type